Data for 07/15/2015

Time Sea-Level Adjusted Pressure Absolute Pressure Temperature Relative Humidity Dew Point   
(mb) (inHg) (mb) (inHg) (C) (F) (%) (C) (F)
00:05 1019 30.09 848 25.04 14.3 57.8 65 7.9 46.2
00:10 1019 30.09 848 25.04 14.3 57.7 65 7.8 46.1
00:15 1019 30.09 848 25.04 14.3 57.8 63 7.5 45.6
00:20 1019 30.09 848 25.04 14.4 57.9 65 7.9 46.3
00:25 1019 30.09 848 25.04 14.1 57.3 66 8 46.3
00:30 1019 30.09 848 25.04 13.8 56.8 67 7.8 46.1
00:35 1019 30.09 848 25.04 13.7 56.6 66 7.5 45.6
00:40 1019 30.09 848 25.04 14 57.3 64 7.5 45.4
00:45 1019 30.09 848 25.04 14.5 58.1 60 7 44.6
00:50 1019 30.09 848 25.04 15.2 59.3 57 6.9 44.4
00:55 1019 30.09 848 25.04 15.3 59.5 57 6.9 44.4
01:00 1019 30.09 848 25.04 15.2 59.3 60 7.6 45.7
01:05 1019 30.09 848 25.04 14.3 57.7 64 7.6 45.7
01:10 1019 30.09 848 25.04 13.8 56.8 65 7.4 45.4
01:15 1019 30.09 848 25.04 13.4 56 67 7.3 45.1
01:20 1019 30.09 848 25.04 13.2 55.7 67 7.2 44.9
01:25 1019 30.09 848 25.04 13.1 55.5 67 7.2 45
01:30 1019 30.09 848 25.04 12.9 55.3 67 7.1 44.8
01:35 1019 30.09 848 25.04 12.9 55.1 68 7.1 44.9
01:40 1019 30.09 848 25.04 12.8 55 67 6.9 44.4
01:45 1018 30.06 848 25.04 12.8 55 67 6.9 44.3
01:50 1018 30.06 848 25.04 12.8 55 67 6.9 44.5
01:55 1018 30.06 847 25.01 12.7 54.9 67 6.7 44.1
02:00 1018 30.06 848 25.04 12.7 54.9 67 6.8 44.2
02:05 1018 30.06 848 25.04 12.7 54.9 68 6.9 44.5
02:10 1018 30.06 848 25.04 12.6 54.7 68 6.8 44.3
02:15 1019 30.09 848 25.04 12.7 54.9 66 6.5 43.7
02:20 1019 30.09 848 25.04 13 55.5 64 6.5 43.7
02:25 1019 30.09 848 25.04 13 55.4 66 6.9 44.4
02:30 1019 30.09 848 25.04 12.9 55.3 67 6.9 44.4
02:35 1019 30.09 848 25.04 12.8 55 68 7 44.6
02:40 1019 30.09 848 25.04 12.3 54.2 71 7.2 44.9
02:45 1019 30.09 848 25.04 12 53.5 72 7 44.6
02:50 1019 30.09 848 25.04 11.7 53.1 72 6.9 44.4
02:55 1019 30.09 848 25.04 11.7 53.1 71 6.7 44
03:00 1019 30.09 848 25.04 11.9 53.4 70 6.7 44
03:05 1019 30.09 848 25.04 12.1 53.7 68 6.3 43.3
03:10 1019 30.09 848 25.04 12.6 54.7 65 6.3 43.3
03:15 1018 30.06 848 25.04 12.8 55 65 6.5 43.7
03:20 1019 30.09 848 25.04 12.6 54.7 67 6.8 44.2
03:25 1019 30.09 848 25.04 12.4 54.3 68 6.7 44
03:30 1019 30.09 848 25.04 12.3 54.2 68 6.5 43.8
03:35 1019 30.09 848 25.04 12.7 54.9 65 6.4 43.5
03:40 1019 30.09 848 25.04 12.8 55 65 6.5 43.7
03:45 1019 30.09 848 25.04 12.9 55.1 65 6.4 43.5
03:50 1019 30.09 848 25.04 12.8 55 66 6.6 44
03:55 1019 30.09 848 25.04 12.8 55 66 6.7 44.1
04:00 1019 30.09 848 25.04 12.6 54.7 66 6.4 43.6
04:05 1019 30.09 848 25.04 12.7 54.9 65 6.3 43.3
04:10 1019 30.09 848 25.04 12.9 55.3 63 6 42.9
04:15 1019 30.09 848 25.04 13.1 55.7 64 6.5 43.7
04:20 1019 30.09 848 25.04 12.9 55.2 66 6.7 44.1
04:25 1019 30.09 848 25.04 12.8 55.1 66 6.7 44.1
04:30 1019 30.09 848 25.04 12.9 55.1 67 6.9 44.4
04:35 1019 30.09 848 25.04 12.8 55 69 7.2 45
04:40 1019 30.09 848 25.04 12.6 54.7 68 7 44.6
04:45 1019 30.09 848 25.04 12.5 54.4 68 6.7 44.1
04:50 1019 30.09 848 25.04 12.6 54.7 67 6.6 44
04:55 1019 30.09 848 25.04 12.8 55 66 6.7 44
05:00 1019 30.09 848 25.04 13 55.4 64 6.5 43.6
05:05 1019 30.09 848 25.04 13.1 55.6 64 6.4 43.6
05:10 1019 30.09 848 25.04 13.2 55.8 66 7.1 44.7
05:15 1019 30.09 848 25.04 13.3 55.9 65 6.8 44.2
05:20 1019 30.09 848 25.04 13.1 55.6 67 7.1 44.8
05:25 1019 30.09 848 25.04 13 55.3 65 6.6 43.9
05:30 1019 30.09 848 25.04 13.1 55.5 67 7.1 44.8
05:35 1019 30.09 849 25.07 13.2 55.7 68 7.4 45.4
05:40 1019 30.09 849 25.07 13.1 55.7 68 7.3 45.2
05:45 1019 30.09 849 25.07 13.1 55.6 66 7 44.6
05:50 1019 30.09 849 25.07 13.3 55.9 64 6.8 44.2
05:55 1020 30.12 849 25.07 13.4 56.1 64 6.8 44.2
06:00 1019 30.09 849 25.07 13.3 56 68 7.5 45.6
06:05 1020 30.12 849 25.07 13 55.4 72 8.2 46.7
06:10 1020 30.12 849 25.07 12.8 55.1 70 7.6 45.6
06:15 1019 30.09 849 25.07 12.9 55.1 69 7.3 45.2
06:20 1020 30.12 849 25.07 13 55.4 69 7.5 45.5
06:25 1020 30.12 849 25.07 13.1 55.6 70 7.7 45.9
06:30 1020 30.12 849 25.07 13.1 55.5 69 7.6 45.8
06:35 1019 30.09 849 25.07 13.1 55.5 67 7.2 45
06:40 1019 30.09 849 25.07 13.3 55.9 69 7.6 45.7
06:45 1019 30.09 849 25.07 13.5 56.4 69 8 46.3
06:50 1019 30.09 849 25.07 13.6 56.5 69 8 46.5
06:55 1020 30.12 849 25.07 13.7 56.7 69 8.2 46.8
07:00 1020 30.12 849 25.07 13.7 56.7 70 8.3 47
07:05 1020 30.12 849 25.07 13.8 56.9 70 8.5 47.3
07:10 1020 30.12 849 25.07 13.7 56.7 73 8.9 48.1
07:15 1020 30.12 849 25.07 13.4 56.1 73 8.6 47.5
07:20 1020 30.12 849 25.07 13.4 56 72 8.4 47.2
07:25 1020 30.12 849 25.07 13.7 56.7 70 8.4 47.1
07:30 1019 30.09 849 25.07 14.1 57.5 68 8.4 47.1
07:35 1019 30.09 849 25.07 14.6 58.2 66 8.3 47
07:40 1019 30.09 849 25.07 15.1 59.3 62 8 46.4
07:45 1019 30.09 849 25.07 15.7 60.3 60 8.1 46.6
07:50 1019 30.09 849 25.07 15.8 60.4 59 7.7 45.9
07:55 1020 30.12 849 25.07 16.2 61.1 57 7.6 45.7
08:00 1019 30.09 849 25.07 17.1 62.8 55 8 46.5
08:05 1019 30.09 849 25.07 17.4 63.3 55 8.3 46.9
08:10 1019 30.09 849 25.07 17.1 62.7 56 8.3 47
08:15 1019 30.09 849 25.07 17.1 62.8 55 8.2 46.8
08:20 1020 30.12 849 25.07 17.2 62.9 58 8.8 47.9
08:25 1020 30.12 849 25.07 17.2 62.9 55 8.2 46.7
08:30 1020 30.12 849 25.07 17.2 63 51 7 44.5
08:35 1020 30.12 849 25.07 17.6 63.6 51 7.4 45.4
08:40 1020 30.12 849 25.07 18.1 64.5 50 7.5 45.4
08:45 1020 30.12 849 25.07 18.5 65.3 48 7.4 45.3
08:50 1020 30.12 849 25.07 18.9 66 46 7.2 45
08:55 1020 30.12 849 25.07 18.7 65.6 47 7.2 45
09:00 1020 30.12 849 25.07 18.4 65.1 48 7.2 44.9
09:05 1019 30.09 849 25.07 18 64.5 49 7.3 45.1
09:10 1019 30.09 849 25.07 17.9 64.3 50 7.4 45.3
09:15 1019 30.09 849 25.07 18.1 64.6 50 7.5 45.6
09:20 1019 30.09 849 25.07 18.5 65.2 48 7.2 45
09:25 1019 30.09 849 25.07 18.6 65.5 47 7.1 44.9
09:30 1019 30.09 849 25.07 19.1 66.4 48 7.9 46.3
09:35 1019 30.09 849 25.07 19.2 66.6 47 7.7 45.8
09:40 1019 30.09 849 25.07 19.3 66.8 44 6.8 44.3
09:45 1019 30.09 848 25.04 19.3 66.7 45 7.3 45.2
09:50 1019 30.09 848 25.04 19.3 66.7 45 7.3 45.1
09:55 1019 30.09 848 25.04 19.7 67.4 43 7 44.6
10:00 1019 30.09 848 25.04 20.1 68.1 43 7.2 45
10:05 1019 30.09 848 25.04 20.5 68.8 41 7 44.7
10:10 1019 30.09 848 25.04 20.4 68.8 43 7.5 45.5
10:15 1019 30.09 848 25.04 20.7 69.2 41 7 44.6
10:20 1019 30.09 848 25.04 21.2 70.2 41 7.6 45.7
10:25 1019 30.09 848 25.04 21.1 70 42 7.8 46.1
10:30 1019 30.09 848 25.04 20.1 68.3 43 7.4 45.3
10:35 1019 30.09 848 25.04 20 68 45 7.8 46
10:40 1019 30.09 848 25.04 20.3 68.6 41 6.8 44.3
10:45 1019 30.09 848 25.04 20.4 68.7 41 7 44.6
10:50 1019 30.09 848 25.04 20.6 69 41 6.9 44.4
10:55 1019 30.09 848 25.04 21.2 70.1 38 6.4 43.5
11:00 1019 30.09 848 25.04 22.3 72.1 37 7 44.6
11:05 1019 30.09 848 25.04 22.5 72.5 37 7.2 45
11:10 1019 30.09 848 25.04 21.4 70.6 39 7.2 44.9
11:15 1019 30.09 848 25.04 21.9 71.4 36 6.2 43.2
11:20 1019 30.09 848 25.04 22.4 72.2 36 6.7 44
11:25 1019 30.09 848 25.04 22.2 72 36 6.7 44
11:30 1019 30.09 848 25.04 21.9 71.4 35 6 42.8
11:35 1019 30.09 848 25.04 22.9 73.2 34 6.3 43.3
11:40 1019 30.09 848 25.04 23.4 74.2 33 6.6 43.8
11:45 1019 30.09 848 25.04 23.4 74.1 33 6.5 43.7
11:50 1019 30.09 848 25.04 23.6 74.6 32 6.2 43.2
11:55 1018 30.06 848 25.04 23.4 74.2 36 7.6 45.7
12:00 1018 30.06 848 25.04 23.1 73.7 33 6.3 43.4
12:05 1018 30.06 848 25.04 23.3 74 33 6.6 43.8
12:10 1018 30.06 848 25.04 23 73.3 34 6.4 43.6
12:15 1018 30.06 847 25.01 22.7 72.8 36 7 44.6
12:20 1018 30.06 847 25.01 22.5 72.4 36 7 44.6
12:25 1018 30.06 847 25.01 22 71.7 39 7.7 45.9
12:30 1018 30.06 847 25.01 21.9 71.5 38 7 44.6
12:35 1018 30.06 847 25.01 22.3 72.1 36 6.6 43.9
12:40 1018 30.06 847 25.01 22.4 72.4 35 6.3 43.3
12:45 1018 30.06 847 25.01 22.4 72.3 34 5.9 42.6
12:50 1018 30.06 847 25.01 22.7 72.8 33 5.7 42.3
12:55 1018 30.06 847 25.01 23.2 73.7 36 7.6 45.7
13:00 1018 30.06 847 25.01 22.8 73.1 36 7.1 44.7
13:05 1018 30.06 847 25.01 22.4 72.2 41 8.7 47.7
13:10 1018 30.06 847 25.01 22.1 71.8 38 7.3 45.2
13:15 1018 30.06 847 25.01 21.7 71.1 40 7.5 45.6
13:20 1018 30.06 847 25.01 21.5 70.7 41 7.9 46.3
13:25 1018 30.06 848 25.04 21.1 70 47 9.6 49.2
13:30 1018 30.06 848 25.04 19 66.1 60 11.2 52.2
13:35 1018 30.06 848 25.04 17.7 63.8 67 11.5 52.6
13:40 1019 30.09 848 25.04 16.5 61.7 71 11.3 52.4
13:45 1019 30.09 848 25.04 16 60.8 69 10.4 50.6
13:50 1019 30.09 848 25.04 15.4 59.8 69 9.9 49.9
13:55 1019 30.09 848 25.04 15.1 59.1 72 10.1 50.1
14:00 1019 30.09 848 25.04 14.9 58.8 72 9.9 49.8
14:05 1019 30.09 848 25.04 15.2 59.4 73 10.5 51
14:10 1019 30.09 848 25.04 15.3 59.6 74 10.7 51.2
14:15 1019 30.09 848 25.04 15.4 59.8 76 11.2 52.1
14:20 1019 30.09 848 25.04 15.6 60.2 73 10.8 51.5
14:25 1019 30.09 848 25.04 15.6 60.2 75 11.2 52.2
14:30 1019 30.09 848 25.04 15.5 59.9 76 11.3 52.3
14:35 1019 30.09 848 25.04 15.5 59.9 74 11 51.8
14:40 1019 30.09 848 25.04 15.9 60.6 71 10.6 51.1
14:45 1019 30.09 848 25.04 16.2 61.1 71 11 51.8
14:50 1019 30.09 848 25.04 17.2 62.9 64 10.3 50.5
14:55 1019 30.09 848 25.04 17.4 63.4 65 10.9 51.6
15:00 1018 30.06 848 25.04 18.1 64.6 61 10.6 51.1
15:05 1018 30.06 848 25.04 19.2 66.5 53 9.4 48.9
15:10 1019 30.09 848 25.04 19.2 66.5 48 8 46.5
15:15 1018 30.06 848 25.04 19.7 67.5 47 8.2 46.8
15:20 1018 30.06 848 25.04 20.3 68.5 47 8.7 47.6
15:25 1018 30.06 848 25.04 20.1 68.1 46 8.4 47.1
15:30 1018 30.06 848 25.04 19.6 67.3 48 8.4 47.1
15:35 1018 30.06 848 25.04 19.5 67.1 51 9.2 48.6
15:40 1018 30.06 847 25.01 19.1 66.3 52 9.2 48.6
15:45 1018 30.06 847 25.01 18.8 65.9 53 9.2 48.5
15:50 1018 30.06 847 25.01 18.9 66.1 52 9.1 48.4
15:55 1018 30.06 847 25.01 19 66.2 56 10.1 50.1
16:00 1018 30.06 847 25.01 18.8 65.8 55 9.8 49.6
16:05 1018 30.06 847 25.01 18.5 65.2 59 10.4 50.6
16:10 1018 30.06 848 25.04 18.2 64.8 63 11.2 52.1
16:15 1018 30.06 848 25.04 18.3 65 61 10.8 51.5
16:20 1018 30.06 848 25.04 18.5 65.2 53 8.8 47.8
16:25 1018 30.06 848 25.04 18.3 64.9 51 8 46.4
16:30 1018 30.06 848 25.04 18 64.4 52 8.1 46.7
16:35 1018 30.06 848 25.04 17.9 64.1 53 8.3 47
16:40 1018 30.06 848 25.04 17.7 63.8 54 8.4 47.2
16:45 1018 30.06 848 25.04 17.4 63.3 55 8.4 47.2
16:50 1019 30.09 848 25.04 17.5 63.4 55 8.5 47.4
16:55 1019 30.09 848 25.04 17.6 63.8 56 8.9 48.1
17:00 1019 30.09 848 25.04 17.4 63.2 57 8.8 47.9
17:05 1019 30.09 848 25.04 17.5 63.5 56 8.7 47.6
17:10 1019 30.09 848 25.04 17.7 63.8 55 8.7 47.6
17:15 1019 30.09 848 25.04 17.7 63.8 57 9.1 48.3
17:20 1019 30.09 848 25.04 17.7 63.8 56 8.9 48
17:25 1019 30.09 848 25.04 17.6 63.8 54 8.2 46.8
17:30 1018 30.06 848 25.04 17.8 64 54 8.4 47.2
17:35 1018 30.06 848 25.04 18.3 64.9 52 8.4 47.2
17:40 1018 30.06 848 25.04 18.3 64.9 54 9 48.2
17:45 1018 30.06 848 25.04 17.9 64.3 55 8.8 47.8
17:50 1018 30.06 847 25.01 18 64.4 54 8.7 47.6
17:55 1018 30.06 847 25.01 18.1 64.5 53 8.4 47.2
18:00 1018 30.06 847 25.01 18.2 64.7 55 9 48.2
18:05 1018 30.06 847 25.01 18.2 64.7 54 8.8 47.8
18:10 1018 30.06 847 25.01 18.4 65.1 53 8.6 47.6
18:15 1018 30.06 847 25.01 18.4 65.1 53 8.9 47.9
18:20 1018 30.06 847 25.01 18.3 64.9 53 8.6 47.6
18:25 1018 30.06 847 25.01 18.2 64.7 54 8.7 47.7
18:30 1018 30.06 847 25.01 18.2 64.8 54 9 48.1
18:35 1018 30.06 847 25.01 18.4 65.2 53 8.8 47.8
18:40 1018 30.06 847 25.01 18.3 65 51 8.2 46.8
18:45 1018 30.06 847 25.01 18.3 64.9 51 7.9 46.3
18:50 1018 30.06 847 25.01 18.3 64.9 51 7.9 46.3
18:55 1018 30.06 847 25.01 18.4 65.2 50 8.1 46.5
19:00 1018 30.06 847 25.01 18.6 65.5 50 8.2 46.8
19:05 1018 30.06 847 25.01 18.5 65.3 52 8.4 47.2
19:10 1018 30.06 847 25.01 18.4 65.1 51 8.3 46.9
19:15 1018 30.06 848 25.04 18.2 64.8 52 8.4 47.2
19:20 1018 30.06 848 25.04 18.1 64.5 53 8.5 47.3
19:25 1018 30.06 847 25.01 18 64.3 53 8.4 47.2
19:30 1018 30.06 847 25.01 17.8 64 55 8.7 47.7
19:35 1018 30.06 848 25.04 17.6 63.6 55 8.6 47.4
19:40 1018 30.06 848 25.04 17.5 63.5 55 8.5 47.3
19:45 1018 30.06 848 25.04 17.5 63.4 56 8.6 47.5
19:50 1018 30.06 848 25.04 17.3 63.2 57 8.9 47.9
19:55 1018 30.06 848 25.04 17.2 63 58 8.9 48.1
20:00 1018 30.06 848 25.04 17.1 62.8 59 9 48.3
20:05 1018 30.06 848 25.04 17 62.5 60 9.2 48.6
20:10 1018 30.06 848 25.04 16.9 62.3 61 9.3 48.8
20:15 1019 30.09 848 25.04 16.8 62.2 63 9.7 49.4
20:20 1019 30.09 848 25.04 16.8 62.2 62 9.5 49
20:25 1019 30.09 848 25.04 16.7 62.1 64 10 50
20:30 1019 30.09 848 25.04 16.5 61.7 64 9.6 49.4
20:35 1019 30.09 848 25.04 16.2 61.2 65 9.7 49.4
20:40 1019 30.09 848 25.04 16.3 61.3 65 9.8 49.6
20:45 1019 30.09 848 25.04 16.1 61 66 9.7 49.5
20:50 1019 30.09 848 25.04 16 60.9 68 10.2 50.4
20:55 1019 30.09 848 25.04 15.9 60.5 70 10.5 50.8
21:00 1019 30.09 848 25.04 15.4 59.7 72 10.4 50.8
21:05 1019 30.09 848 25.04 15 59.1 73 10.3 50.6
21:10 1019 30.09 848 25.04 14.8 58.6 74 10.2 50.3
21:15 1019 30.09 848 25.04 14.7 58.5 72 9.8 49.6
21:20 1019 30.09 848 25.04 14.8 58.7 71 9.7 49.4
21:25 1019 30.09 848 25.04 15.1 59.2 70 9.8 49.7
21:30 1019 30.09 848 25.04 14.8 58.6 77 10.8 51.4
21:35 1019 30.09 848 25.04 14.5 58 75 10.2 50.3
21:40 1019 30.09 848 25.04 14.3 57.7 74 9.7 49.4
21:45 1019 30.09 848 25.04 14.1 57.3 76 9.9 49.8
21:50 1019 30.09 848 25.04 13.5 56.2 73 8.8 47.8
21:55 1019 30.09 848 25.04 13.2 55.7 74 8.7 47.6
22:00 1019 30.09 848 25.04 13.1 55.5 73 8.4 47.2
22:05 1019 30.09 848 25.04 13.1 55.6 73 8.4 47.1
22:10 1019 30.09 848 25.04 13.2 55.7 73 8.5 47.4
22:15 1019 30.09 848 25.04 12.9 55.2 74 8.4 47.1
22:20 1019 30.09 848 25.04 12.8 55 74 8.4 47
22:25 1019 30.09 848 25.04 12.8 55.1 74 8.3 46.9
22:30 1019 30.09 848 25.04 13 55.4 72 8.2 46.7
22:35 1019 30.09 848 25.04 13.1 55.6 70 7.9 46.2
22:40 1019 30.09 848 25.04 13.2 55.8 69 7.8 46
22:45 1019 30.09 848 25.04 13.5 56.2 68 7.7 45.8
22:50 1019 30.09 848 25.04 13.5 56.4 68 7.8 46.1
22:55 1019 30.09 848 25.04 13.2 55.7 69 7.6 45.8
23:00 1019 30.09 848 25.04 12.9 55.3 70 7.7 45.8
23:05 1019 30.09 848 25.04 12.6 54.7 72 7.7 45.8
23:10 1019 30.09 848 25.04 12.3 54.1 73 7.7 45.8
23:15 1019 30.09 848 25.04 12.1 53.7 73 7.5 45.5
23:20 1019 30.09 848 25.04 12.1 53.8 72 7.3 45.1
23:25 1019 30.09 848 25.04 12.2 54 72 7.3 45.2
23:30 1019 30.09 848 25.04 12.1 53.9 72 7.3 45.2
23:35 1019 30.09 848 25.04 12 53.6 72 7.2 45
23:40 1019 30.09 848 25.04 12.1 53.8 71 7 44.6
23:45 1019 30.09 848 25.04 12.1 53.8 70 6.8 44.3
23:50 1019 30.09 848 25.04 12.1 53.8 70 6.8 44.2
23:55 1019 30.09 848 25.04 12.2 53.9 70 6.9 44.4
24:00 1019 30.09 848 25.04 12.3 54.2 70 7 44.6